createdAt,value
2023-04-07T00:01:25.029Z,25.65
2023-04-07T00:03:54.392Z,26.13
2023-04-07T00:06:23.469Z,27.65
2023-04-07T00:08:53.876Z,26.23
2023-04-07T00:13:51.147Z,25.92
2023-04-07T00:16:20.161Z,25.70
2023-04-07T00:18:49.144Z,26.65
2023-04-07T00:21:18.030Z,28.48
2023-04-07T00:23:47.139Z,27.13
2023-04-07T00:26:17.445Z,26.90
2023-04-07T00:28:46.464Z,27.42
2023-04-07T00:31:15.664Z,28.95
2023-04-07T00:33:44.599Z,28.92
2023-04-07T00:36:13.430Z,27.00
2023-04-07T00:38:42.473Z,29.13
2023-04-07T00:41:11.570Z,30.45
2023-04-07T00:43:41.728Z,29.38
2023-04-07T00:46:11.826Z,31.70
2023-04-07T00:48:40.838Z,30.10
2023-04-07T00:51:09.851Z,30.95
2023-04-07T00:53:38.887Z,30.50
2023-04-07T00:56:08.596Z,29.38
2023-04-07T00:58:37.528Z,29.48
2023-04-07T01:01:10.859Z,29.52
2023-04-07T01:03:47.051Z,30.65
2023-04-07T01:06:17.762Z,29.13
2023-04-07T01:08:52.566Z,31.05
2023-04-07T01:11:26.117Z,30.63
2023-04-07T01:13:56.878Z,30.17
2023-04-07T01:16:53.704Z,29.13
2023-04-07T01:19:35.145Z,28.92
2023-04-07T01:22:05.650Z,27.15
2023-04-07T01:27:22.890Z,28.42
2023-04-07T01:29:54.210Z,29.35
2023-04-07T01:32:24.283Z,29.52
2023-04-07T01:34:55.108Z,29.80
2023-04-07T01:37:24.455Z,28.30
2023-04-07T01:39:55.073Z,29.65
2023-04-07T01:42:24.378Z,29.23
2023-04-07T01:44:54.859Z,28.55
2023-04-07T01:47:24.313Z,29.52
2023-04-07T01:49:53.792Z,28.30
2023-04-07T01:52:23.188Z,30.93
2023-04-07T01:54:52.282Z,31.90
2023-04-07T01:57:21.318Z,33.90
2023-04-07T01:59:56.399Z,33.55
2023-04-07T02:02:27.807Z,31.55
2023-04-07T02:04:57.719Z,31.08
2023-04-07T02:07:31.261Z,30.50
2023-04-07T02:10:02.121Z,31.77
2023-04-07T02:12:31.841Z,35.15
2023-04-07T02:15:12.787Z,32.65
2023-04-07T02:17:49.721Z,34.78
2023-04-07T02:20:19.052Z,34.22
2023-04-07T02:22:47.988Z,33.67
2023-04-07T02:25:24.035Z,36.00
2023-04-07T02:27:52.972Z,36.35
2023-04-07T02:30:23.541Z,39.90
2023-04-07T02:32:53.390Z,42.78
2023-04-07T02:35:22.599Z,40.80
2023-04-07T02:37:51.570Z,44.88
2023-04-07T02:40:20.534Z,45.08
2023-04-07T02:42:49.722Z,42.88
2023-04-07T02:45:18.778Z,41.20
2023-04-07T02:47:49.336Z,44.33
2023-04-07T02:50:20.176Z,40.30
2023-04-07T02:52:48.694Z,40.03
2023-04-07T02:55:18.634Z,43.42
2023-04-07T02:57:47.800Z,37.90
2023-04-07T03:00:35.108Z,39.83
2023-04-07T03:03:18.785Z,38.60
2023-04-07T03:08:42.347Z,39.83
2023-04-07T03:11:11.204Z,38.58
2023-04-07T03:13:40.399Z,42.13
2023-04-07T03:16:09.458Z,43.17
2023-04-07T03:18:49.095Z,40.53
2023-04-07T03:21:18.870Z,39.38
2023-04-07T03:23:47.775Z,44.13
2023-04-07T03:26:16.761Z,38.22
2023-04-07T03:28:45.288Z,38.63
2023-04-07T03:31:15.617Z,41.53
2023-04-07T03:33:44.645Z,39.83
2023-04-07T03:36:15.312Z,39.63
2023-04-07T03:38:44.272Z,39.08
2023-04-07T03:41:14.399Z,41.20
2023-04-07T03:43:43.154Z,38.45
2023-04-07T03:46:13.194Z,41.13
2023-04-07T03:48:42.243Z,40.80
2023-04-07T03:51:14.532Z,38.55
2023-04-07T03:53:43.550Z,39.50
2023-04-07T03:56:32.810Z,37.67
2023-04-07T03:59:01.757Z,39.83
2023-04-07T04:01:35.022Z,38.38
2023-04-07T04:04:11.872Z,37.33
2023-04-07T04:06:42.558Z,40.75
2023-04-07T04:09:34.243Z,38.63
2023-04-07T04:12:03.458Z,42.78
2023-04-07T04:14:33.683Z,37.60
2023-04-07T04:17:05.418Z,38.63
2023-04-07T04:19:45.110Z,40.67
2023-04-07T04:22:24.813Z,39.55
2023-04-07T04:24:56.819Z,41.20
2023-04-07T04:27:27.718Z,40.33
2023-04-07T04:30:05.092Z,40.53
2023-04-07T04:32:41.622Z,38.00
2023-04-07T04:35:11.445Z,41.20
2023-04-07T04:37:50.406Z,39.83
2023-04-07T04:40:19.670Z,38.72
2023-04-07T04:42:50.821Z,38.63
2023-04-07T04:45:21.975Z,38.30
2023-04-07T04:47:52.153Z,38.50
2023-04-07T04:50:21.312Z,38.50
2023-04-07T04:52:52.306Z,38.55
2023-04-07T04:55:24.633Z,37.25
2023-04-07T04:57:55.392Z,39.45
2023-04-07T05:00:34.374Z,36.92
2023-04-07T05:03:07.202Z,40.25
2023-04-07T05:05:40.297Z,39.53
2023-04-07T05:08:12.772Z,38.13
2023-04-07T05:10:42.160Z,39.22
2023-04-07T05:13:15.672Z,37.00
2023-04-07T05:15:44.641Z,36.40
2023-04-07T05:18:16.446Z,37.65
2023-04-07T05:20:45.713Z,38.17
2023-04-07T05:23:16.739Z,37.25
2023-04-07T05:25:48.314Z,39.13
2023-04-07T05:28:17.460Z,36.75
2023-04-07T05:30:46.509Z,39.00
2023-04-07T05:33:15.871Z,36.17
2023-04-07T05:35:49.060Z,37.70
2023-04-07T05:38:19.371Z,36.90
2023-04-07T05:40:48.415Z,35.92
2023-04-07T05:43:25.497Z,36.90
2023-04-07T05:45:54.726Z,36.10
2023-04-07T05:50:55.018Z,33.90
2023-04-07T05:53:25.658Z,36.95
2023-04-07T05:55:54.541Z,35.40
2023-04-07T05:58:46.342Z,34.08
2023-04-07T06:01:16.599Z,34.92
2023-04-07T06:03:45.686Z,34.53
2023-04-07T06:06:21.633Z,34.53
2023-04-07T06:08:52.248Z,32.00
2023-04-07T06:11:21.436Z,34.40
2023-04-07T06:13:50.368Z,33.72
2023-04-07T06:16:19.924Z,32.22
2023-04-07T06:18:49.019Z,31.38
2023-04-07T06:21:18.015Z,32.65
2023-04-07T06:23:47.466Z,31.95
2023-04-07T06:26:18.000Z,30.52
2023-04-07T06:28:46.882Z,29.90
2023-04-07T06:31:16.797Z,31.77
2023-04-07T06:33:45.857Z,31.70
2023-04-07T06:36:15.648Z,34.15
2023-04-07T06:38:44.748Z,32.28
2023-04-07T06:41:17.081Z,30.58
2023-04-07T06:43:49.488Z,29.80
2023-04-07T06:46:18.947Z,31.30
2023-04-07T06:48:47.912Z,30.75
2023-04-07T06:51:16.820Z,30.48
2023-04-07T06:53:47.722Z,30.58
2023-04-07T06:56:16.769Z,31.63
2023-04-07T06:58:46.682Z,29.80
2023-04-07T07:03:44.420Z,29.33
2023-04-07T07:06:13.417Z,28.55
2023-04-07T07:08:42.290Z,28.58
2023-04-07T07:11:11.466Z,28.20
2023-04-07T07:13:39.892Z,27.90
2023-04-07T07:16:10.327Z,26.88
2023-04-07T07:18:39.324Z,27.85
2023-04-07T07:21:08.215Z,27.85
2023-04-07T07:23:37.225Z,27.20
2023-04-07T07:26:06.161Z,27.20
2023-04-07T07:28:34.753Z,28.73
2023-04-07T07:31:13.320Z,28.25
2023-04-07T07:33:44.269Z,26.55
2023-04-07T07:36:13.687Z,27.67
2023-04-07T07:38:42.589Z,26.65
2023-04-07T07:41:11.494Z,26.63
2023-04-07T07:43:40.027Z,26.35
2023-04-07T07:46:08.972Z,26.65
2023-04-07T07:48:39.329Z,28.10
2023-04-07T07:53:36.820Z,29.10
2023-04-07T07:56:05.915Z,28.88
2023-04-07T07:58:34.861Z,27.67
2023-04-07T08:01:03.947Z,28.17
2023-04-07T08:03:33.242Z,26.98
2023-04-07T08:06:03.764Z,24.85
2023-04-07T08:11:01.379Z,24.48
2023-04-07T08:13:29.958Z,25.27
2023-04-07T08:15:59.006Z,24.58
2023-04-07T08:18:28.159Z,23.55
2023-04-07T08:20:57.686Z,23.50
2023-04-07T08:23:28.024Z,22.07
2023-04-07T08:25:56.596Z,22.92
2023-04-07T08:28:25.961Z,22.67
2023-04-07T08:30:54.901Z,23.13
2023-04-07T08:33:24.629Z,22.00
2023-04-07T08:35:53.679Z,20.02
2023-04-07T08:38:22.608Z,19.70
2023-04-07T08:41:02.678Z,20.98
2023-04-07T08:43:31.969Z,19.60
2023-04-07T08:46:01.629Z,20.75
2023-04-07T08:48:34.106Z,19.70
2023-04-07T08:51:06.728Z,20.02
2023-04-07T08:53:39.754Z,19.65
2023-04-07T08:56:10.780Z,20.13
2023-04-07T08:58:39.540Z,19.52
2023-04-07T09:01:08.781Z,20.05
2023-04-07T09:03:38.231Z,20.27
2023-04-07T09:06:07.447Z,19.67
2023-04-07T09:08:36.387Z,19.27
2023-04-07T09:11:05.813Z,20.13
2023-04-07T09:13:35.890Z,18.42
2023-04-07T09:16:05.130Z,18.08
2023-04-07T09:18:34.301Z,18.67
2023-04-07T09:21:04.426Z,17.40
2023-04-07T09:23:34.853Z,18.67
2023-04-07T09:26:22.168Z,18.08
2023-04-07T09:28:54.583Z,19.55
2023-04-07T09:31:26.338Z,17.92
2023-04-07T09:33:55.641Z,18.02
2023-04-07T09:36:27.214Z,18.42
2023-04-07T09:38:56.225Z,18.35
2023-04-07T09:41:25.239Z,18.10
2023-04-07T09:43:58.407Z,19.48
2023-04-07T09:46:28.219Z,19.27
2023-04-07T09:49:05.147Z,19.10
2023-04-07T09:51:34.675Z,18.60
2023-04-07T09:54:03.917Z,18.23
2023-04-07T09:56:32.890Z,18.58
2023-04-07T09:59:03.632Z,19.65
2023-04-07T10:01:32.478Z,20.05
2023-04-07T10:04:01.892Z,18.80
2023-04-07T10:06:30.982Z,20.48
2023-04-07T10:08:59.937Z,20.50
2023-04-07T10:11:30.457Z,19.33
2023-04-07T10:13:59.403Z,19.45
2023-04-07T10:16:29.524Z,19.25
2023-04-07T10:18:58.673Z,19.42
2023-04-07T10:21:27.964Z,19.80
2023-04-07T10:24:01.760Z,19.42
2023-04-07T10:26:32.151Z,18.85
2023-04-07T10:31:32.129Z,17.83
2023-04-07T10:34:02.793Z,17.15
2023-04-07T10:36:31.894Z,19.02
2023-04-07T10:39:25.307Z,19.05
2023-04-07T10:41:54.322Z,18.98
2023-04-07T10:44:50.537Z,17.92
2023-04-07T10:47:20.609Z,17.38
2023-04-07T10:52:36.504Z,16.05
2023-04-07T10:55:34.456Z,16.95
2023-04-07T10:58:25.333Z,17.60
2023-04-07T11:01:21.446Z,16.40
2023-04-07T11:04:00.095Z,15.82
2023-04-07T11:06:29.286Z,15.85
2023-04-07T11:08:58.200Z,16.08
2023-04-07T11:11:43.120Z,16.58
2023-04-07T11:14:11.786Z,15.77
2023-04-07T11:16:42.956Z,15.30
2023-04-07T11:19:13.936Z,15.38
2023-04-07T11:21:42.932Z,16.00
2023-04-07T11:24:12.060Z,15.73
2023-04-07T11:26:42.710Z,15.75
2023-04-07T11:29:13.094Z,16.88
2023-04-07T11:31:41.725Z,15.52
2023-04-07T11:34:12.341Z,14.90
2023-04-07T11:36:43.423Z,14.40
2023-04-07T11:39:22.348Z,16.33
2023-04-07T11:41:52.099Z,13.60
2023-04-07T11:44:21.078Z,13.80
2023-04-07T11:46:56.617Z,14.15
2023-04-07T11:49:28.320Z,13.98
2023-04-07T11:52:01.876Z,14.02
2023-04-07T11:54:41.706Z,12.77
2023-04-07T11:57:13.010Z,13.38
2023-04-07T11:59:42.574Z,12.95
2023-04-07T12:02:11.543Z,14.60
2023-04-07T12:04:57.472Z,13.18
2023-04-07T12:07:28.351Z,14.65
2023-04-07T12:09:58.079Z,14.32
2023-04-07T12:12:28.539Z,12.13
2023-04-07T12:14:58.424Z,12.98
2023-04-07T12:17:28.405Z,13.52
2023-04-07T12:19:58.555Z,13.37
2023-04-07T12:22:27.432Z,13.30
2023-04-07T12:24:56.435Z,13.65
2023-04-07T12:27:39.618Z,13.10
2023-04-07T12:30:11.584Z,12.30
2023-04-07T12:32:40.556Z,12.83
2023-04-07T12:35:11.047Z,12.60
2023-04-07T12:37:39.554Z,12.85
2023-04-07T12:40:09.739Z,12.27
2023-04-07T12:42:38.642Z,12.55
2023-04-07T12:45:08.482Z,12.13
2023-04-07T12:47:40.358Z,12.15
2023-04-07T12:50:11.582Z,12.15
2023-04-07T12:52:40.278Z,9.38
2023-04-07T12:55:09.622Z,8.00
2023-04-07T12:57:38.961Z,6.05
2023-04-07T13:00:10.079Z,3.72
2023-04-07T13:02:39.201Z,3.00
2023-04-07T13:05:08.625Z,3.10
2023-04-07T13:07:38.558Z,2.67
2023-04-07T13:10:09.406Z,3.20
2023-04-07T13:12:40.025Z,2.80
2023-04-07T13:15:09.461Z,2.55
2023-04-07T13:17:38.903Z,2.53
2023-04-07T13:20:09.144Z,3.07
2023-04-07T13:22:48.789Z,2.60
2023-04-07T13:25:20.858Z,2.80
2023-04-07T13:27:49.876Z,2.80
2023-04-07T13:30:20.848Z,3.28
2023-04-07T13:32:51.199Z,3.03
2023-04-07T13:35:20.520Z,3.53
2023-04-07T13:37:50.548Z,3.60
2023-04-07T13:42:48.176Z,3.75
2023-04-07T13:45:17.014Z,2.90
2023-04-07T13:47:46.339Z,3.13
2023-04-07T13:50:15.998Z,3.00
2023-04-07T13:52:44.622Z,3.65
2023-04-07T13:55:16.167Z,3.85
2023-04-07T13:57:45.101Z,3.40
2023-04-07T14:00:15.610Z,3.50
2023-04-07T14:02:46.005Z,3.75
2023-04-07T14:05:15.061Z,4.80
2023-04-07T14:07:43.477Z,3.25
2023-04-07T14:10:14.716Z,3.83
2023-04-07T14:15:12.338Z,3.47
2023-04-07T14:17:41.295Z,3.30
2023-04-07T14:20:10.804Z,3.45
2023-04-07T14:22:39.397Z,3.47
2023-04-07T14:25:09.096Z,3.85
2023-04-07T14:27:39.575Z,4.22
2023-04-07T14:30:09.738Z,3.45
2023-04-07T14:32:38.893Z,4.05
2023-04-07T14:35:08.812Z,3.63
2023-04-07T14:37:37.285Z,3.17
2023-04-07T14:40:07.511Z,3.58
2023-04-07T14:45:08.413Z,2.85
2023-04-07T14:47:37.379Z,4.25
2023-04-07T14:50:07.179Z,3.63
2023-04-07T14:52:37.239Z,4.57
2023-04-07T14:57:35.166Z,3.30
2023-04-07T15:00:07.625Z,3.60
2023-04-07T15:02:37.259Z,4.10
2023-04-07T15:05:06.868Z,3.95
2023-04-07T15:07:35.515Z,3.80
2023-04-07T15:10:04.453Z,3.88
2023-04-07T15:12:33.570Z,3.72
2023-04-07T15:15:02.459Z,3.80
2023-04-07T15:17:43.160Z,3.25
2023-04-07T15:20:13.513Z,4.15
2023-04-07T15:22:42.194Z,4.03
2023-04-07T15:25:11.132Z,4.00
2023-04-07T15:27:40.176Z,3.65
2023-04-07T15:30:10.118Z,4.20
2023-04-07T15:32:40.433Z,4.85
2023-04-07T15:37:38.628Z,4.20
2023-04-07T15:40:09.209Z,4.23
2023-04-07T15:45:11.919Z,4.28
2023-04-07T15:47:42.453Z,5.35
2023-04-07T15:50:12.306Z,5.05
2023-04-07T15:52:40.833Z,5.18
2023-04-07T15:55:10.788Z,4.30
2023-04-07T15:57:39.813Z,4.78
2023-04-07T16:00:09.941Z,4.70
2023-04-07T16:02:39.396Z,4.88
2023-04-07T16:05:10.052Z,5.00
2023-04-07T16:07:38.732Z,4.72
2023-04-07T16:10:09.036Z,4.78
2023-04-07T16:12:38.105Z,4.22
2023-04-07T16:15:09.910Z,4.43
2023-04-07T16:17:40.522Z,4.38
2023-04-07T16:20:14.741Z,6.50
2023-04-07T16:22:43.968Z,4.07
2023-04-07T16:25:13.038Z,4.23
2023-04-07T16:27:42.068Z,3.00
2023-04-07T16:30:13.854Z,3.15
2023-04-07T16:32:44.668Z,3.45
2023-04-07T16:35:16.079Z,4.05
2023-04-07T16:37:46.369Z,3.45
2023-04-07T16:40:16.235Z,3.40
2023-04-07T16:42:45.226Z,3.58
2023-04-07T16:45:14.343Z,3.25
2023-04-07T16:47:44.648Z,3.13
2023-04-07T16:52:43.300Z,3.45
2023-04-07T16:55:12.529Z,4.00
2023-04-07T16:57:41.437Z,3.70
2023-04-07T17:00:11.545Z,4.00
2023-04-07T17:02:40.618Z,4.53
2023-04-07T17:05:10.557Z,3.70
2023-04-07T17:07:40.603Z,3.70
2023-04-07T17:10:11.545Z,3.42
2023-04-07T17:12:40.466Z,3.70
2023-04-07T17:15:10.054Z,4.50
2023-04-07T17:17:39.485Z,3.78
2023-04-07T17:20:09.552Z,4.50
2023-04-07T17:22:38.122Z,4.50
2023-04-07T17:25:12.327Z,3.63
2023-04-07T17:27:41.422Z,4.15
2023-04-07T17:30:11.009Z,4.60
2023-04-07T17:32:40.198Z,3.60
2023-04-07T17:35:10.144Z,4.28
2023-04-07T17:37:39.208Z,4.20
2023-04-07T17:40:11.048Z,3.70
2023-04-07T17:42:40.147Z,4.22
2023-04-07T17:45:10.109Z,4.40
2023-04-07T17:47:39.212Z,4.50
2023-04-07T17:50:09.012Z,4.00
2023-04-07T17:52:37.784Z,4.78
2023-04-07T17:55:08.545Z,4.78
2023-04-07T17:57:38.963Z,5.80
2023-04-07T18:02:43.826Z,5.85
2023-04-07T18:05:13.148Z,5.75
2023-04-07T18:07:42.175Z,6.32
2023-04-07T18:10:11.641Z,6.00
2023-04-07T18:12:42.138Z,4.80
2023-04-07T18:15:11.685Z,6.13
2023-04-07T18:17:41.356Z,6.83
2023-04-07T18:20:11.732Z,6.20
2023-04-07T18:22:40.425Z,6.00
2023-04-07T18:25:10.193Z,6.43
2023-04-07T18:27:39.127Z,6.93
2023-04-07T18:30:10.739Z,6.57
2023-04-07T18:32:39.934Z,7.93
2023-04-07T18:35:09.601Z,7.05
2023-04-07T18:37:38.398Z,7.43
2023-04-07T18:40:08.768Z,7.13
2023-04-07T18:45:08.052Z,6.05
2023-04-07T18:47:39.119Z,5.45
2023-04-07T18:50:09.230Z,5.93
2023-04-07T18:52:37.805Z,5.55
2023-04-07T18:55:09.139Z,4.40
2023-04-07T18:57:40.392Z,5.22
2023-04-07T19:00:10.122Z,5.38
2023-04-07T19:02:44.647Z,5.43
2023-04-07T19:05:14.143Z,5.47
2023-04-07T19:07:42.748Z,5.22
2023-04-07T19:10:11.716Z,4.85
2023-04-07T19:12:40.756Z,5.47
2023-04-07T19:15:11.366Z,5.85
2023-04-07T19:17:41.822Z,5.85
2023-04-07T19:20:11.315Z,6.65
2023-04-07T19:22:39.799Z,6.82
2023-04-07T19:25:09.761Z,7.05
2023-04-07T19:27:39.643Z,6.72
2023-04-07T19:30:09.886Z,7.30
2023-04-07T19:32:39.115Z,7.00
2023-04-07T19:35:10.709Z,7.75
2023-04-07T19:37:40.376Z,7.93
2023-04-07T19:40:10.042Z,8.20
2023-04-07T19:42:39.470Z,7.53
2023-04-07T19:45:09.636Z,8.20
2023-04-07T19:47:39.242Z,8.10
2023-04-07T19:50:11.325Z,8.90
2023-04-07T19:52:40.115Z,8.65
2023-04-07T19:55:10.768Z,8.32
2023-04-07T19:57:40.557Z,8.38
2023-04-07T20:00:10.683Z,7.10
2023-04-07T20:02:50.066Z,7.18
2023-04-07T20:05:20.918Z,7.83
2023-04-07T20:10:18.232Z,7.30
2023-04-07T20:12:47.341Z,7.05
2023-04-07T20:15:16.926Z,6.22
2023-04-07T20:17:48.125Z,5.57
2023-04-07T20:20:17.950Z,5.78
2023-04-07T20:22:47.944Z,5.15
2023-04-07T20:25:17.091Z,6.30
2023-04-07T20:27:49.325Z,5.63
2023-04-07T20:30:18.545Z,5.57
2023-04-07T20:32:47.539Z,5.32
2023-04-07T20:35:16.647Z,5.88
2023-04-07T20:37:45.452Z,6.18
2023-04-07T20:40:16.166Z,6.75
2023-04-07T20:42:46.058Z,6.72
2023-04-07T20:45:14.963Z,6.43
2023-04-07T20:47:44.200Z,5.40
2023-04-07T20:50:13.284Z,5.68
2023-04-07T20:52:43.831Z,5.78
2023-04-07T20:55:13.106Z,5.53
2023-04-07T20:57:43.670Z,5.65
2023-04-07T21:00:13.313Z,6.47
2023-04-07T21:02:42.922Z,5.57
2023-04-07T21:05:12.077Z,6.10
2023-04-07T21:07:40.572Z,6.70
2023-04-07T21:10:10.919Z,5.82
2023-04-07T21:15:11.593Z,6.47
2023-04-07T21:17:40.675Z,7.53
2023-04-07T21:20:10.825Z,7.97
2023-04-07T21:22:40.281Z,7.75
2023-04-07T21:25:09.966Z,6.93
2023-04-07T21:27:39.023Z,8.18
2023-04-07T21:30:10.747Z,8.43
2023-04-07T21:32:39.554Z,7.25
2023-04-07T21:35:09.209Z,7.68
2023-04-07T21:37:37.855Z,8.23
2023-04-07T21:40:07.965Z,8.85
2023-04-07T21:42:36.982Z,8.35
2023-04-07T21:45:07.455Z,8.07
2023-04-07T21:47:37.977Z,8.93
2023-04-07T21:50:08.628Z,8.63
2023-04-07T21:52:37.178Z,8.77
2023-04-07T21:55:07.264Z,8.48
2023-04-07T21:57:37.664Z,7.07
2023-04-07T22:00:08.739Z,9.52
2023-04-07T22:02:45.486Z,7.80
2023-04-07T22:05:14.814Z,9.43
2023-04-07T22:07:45.014Z,10.15
2023-04-07T22:10:14.048Z,6.22
2023-04-07T22:12:43.221Z,9.23
2023-04-07T22:15:13.633Z,8.75
2023-04-07T22:20:13.209Z,7.88
2023-04-07T22:22:42.141Z,7.40
2023-04-07T22:25:11.303Z,8.57
2023-04-07T22:27:40.252Z,8.50
2023-04-07T22:30:11.015Z,8.85
2023-04-07T22:32:41.526Z,7.72
2023-04-07T22:35:12.465Z,10.30
2023-04-07T22:37:40.967Z,10.65
2023-04-07T22:40:10.669Z,11.93
2023-04-07T22:42:40.212Z,12.65
2023-04-07T22:45:10.244Z,13.95
2023-04-07T22:47:39.363Z,13.30
2023-04-07T22:50:09.106Z,13.65
2023-04-07T22:52:39.070Z,13.90
2023-04-07T22:57:37.260Z,15.43
2023-04-07T23:00:07.187Z,15.70
2023-04-07T23:02:36.766Z,14.77
2023-04-07T23:05:07.719Z,16.80
2023-04-07T23:07:36.337Z,19.48
2023-04-07T23:10:09.487Z,19.30
2023-04-07T23:12:39.162Z,18.75
2023-04-07T23:15:08.857Z,20.02
2023-04-07T23:17:38.058Z,19.63
2023-04-07T23:20:08.346Z,18.10
2023-04-07T23:22:36.924Z,16.80
2023-04-07T23:25:08.576Z,20.58
2023-04-07T23:27:37.797Z,21.98
2023-04-07T23:30:07.833Z,22.02
2023-04-07T23:32:36.763Z,21.17
2023-04-07T23:35:06.793Z,20.08
2023-04-07T23:37:35.673Z,18.08
2023-04-07T23:40:04.788Z,19.45
2023-04-07T23:42:35.154Z,17.15
2023-04-07T23:47:32.887Z,18.25
2023-04-07T23:50:02.672Z,18.83
2023-04-07T23:52:31.620Z,20.63
2023-04-07T23:55:00.545Z,20.20
2023-04-07T23:57:29.710Z,19.17
